Welcome to Northern Hawkes Bay. New Zealand.
PWS Header
      nz Flag



Hit Counter


W3C Valid W3C Valid logo


    Wairoa

Select any of the Stations below to visit their websites.










Historic Data from Weather Underground
Select the location of interest below. Wairoa is the default. Please have patience, this Data is slow to load in.
Northern Hawkes Bay Historical Data
Daily Summary for February 3, 2017 Units:  Metric    English   Both
« Previous Day
Next Day »
Daily Weekly Monthly Yearly Custom
  High: Low: Average:
Temperature: 30.3 °C 16.9 °C 23.9 °C
Dew Point: 18.3 °C 12.6 °C 14.9 °C
Humidity: 82% 36% 58%
Wind Speed: 27.0km/h 0.0km/h 10.5km/h
Wind Gust: 40.4km/h - -
Wind- - SW
Pressure: 1013.8 hPa 1006.3 hPa -
Precipitation: 0.0 mm    
Historical Graphs
 
 
Tabular Data for February 3, 2017
Time Temperature Dew Point Pressure Wind Wind Speed Wind Gust Humidity Rainfall Rate (Hourly) solar
02:29 22.2 °C 13.8 °C 1007.3 hPa North 14.8 km/h 29.4 km/h 59% 0.0 mm 0 W/m2
02:48 22.1 °C 14.2 °C 1007.3 hPa NW 11.1 km/h 24.5 km/h 61% 0.0 mm 0 W/m2
02:53 22.1 °C 14.2 °C 1007.3 hPa NNW 11.1 km/h 24.5 km/h 61% 0.0 mm 0 W/m2
02:58 22.1 °C 14.2 °C 1007.3 hPa NNW 12.2 km/h 21.9 km/h 61% 0.0 mm 0 W/m2
03:03 22.0 °C 14.4 °C 1007.0 hPa NNW 15.8 km/h 20.9 km/h 62% 0.0 mm 0 W/m2
03:08 22.0 °C 14.4 °C 1007.0 hPa NNW 15.8 km/h 28.0 km/h 62% 0.0 mm 0 W/m2
03:13 22.0 °C 14.4 °C 1006.7 hPa NNW 21.9 km/h 33.1 km/h 62% 0.3 mm 0 W/m2
03:18 22.0 °C 14.4 °C 1006.7 hPa NNW 11.1 km/h 33.1 km/h 62% 0.3 mm 0 W/m2
03:23 21.9 °C 14.6 °C 1006.7 hPa NNW 14.8 km/h 33.1 km/h 63% 0.3 mm 0 W/m2
03:27 21.9 °C 14.8 °C 1006.7 hPa NW 9.7 km/h 27.0 km/h 64% 0.3 mm 0 W/m2
03:32 21.9 °C 14.8 °C 1006.7 hPa NW 12.2 km/h 21.9 km/h 64% 0.3 mm 0 W/m2
03:37 21.9 °C 14.8 °C 1006.7 hPa NW 17.2 km/h 28.0 km/h 64% 0.3 mm 0 W/m2
03:42 22.0 °C 14.4 °C 1006.7 hPa NW 14.8 km/h 30.6 km/h 62% 0.3 mm 0 W/m2
03:47 22.0 °C 14.4 °C 1006.7 hPa NW 13.4 km/h 30.6 km/h 62% 0.3 mm 0 W/m2
03:52 22.1 °C 14.5 °C 1006.7 hPa NW 8.7 km/h 37.8 km/h 62% 0.3 mm 0 W/m2
03:57 22.0 °C 14.4 °C 1006.7 hPa WNW 9.7 km/h 37.8 km/h 62% 0.3 mm 0 W/m2
04:02 22.1 °C 14.5 °C 1006.7 hPa NW 9.7 km/h 19.5 km/h 62% 0.3 mm 0 W/m2
04:07 22.1 °C 14.5 °C 1006.7 hPa NNW 14.8 km/h 23.3 km/h 62% 0.3 mm 0 W/m2
04:12 22.2 °C 14.6 °C 1006.3 hPa NNW 9.7 km/h 23.3 km/h 62% 0.0 mm 0 W/m2
04:17 22.1 °C 14.5 °C 1006.7 hPa NNW 5.0 km/h 23.3 km/h 62% 0.0 mm 0 W/m2
04:22 22.1 °C 14.5 °C 1007.0 hPa NNW 7.2 km/h 19.5 km/h 62% 0.0 mm 0 W/m2
04:27 22.2 °C 14.6 °C 1006.7 hPa NNW 12.2 km/h 21.9 km/h 62% 0.0 mm 0 W/m2
04:32 22.2 °C 14.6 °C 1006.7 hPa NNW 13.4 km/h 21.9 km/h 62% 0.0 mm 0 W/m2
04:37 22.3 °C 14.7 °C 1006.7 hPa NNW 17.2 km/h 23.3 km/h 62% 0.0 mm 0 W/m2
04:42 22.3 °C 14.7 °C 1006.7 hPa North 11.1 km/h 23.3 km/h 62% 0.0 mm 0 W/m2
04:47 22.3 °C 14.7 °C 1007.0 hPa NNW 15.8 km/h 27.0 km/h 62% 0.0 mm 0 W/m2
04:52 22.2 °C 14.8 °C 1007.3 hPa NNW 13.4 km/h 27.0 km/h 63% 0.0 mm 0 W/m2
04:57 22.2 °C 14.8 °C 1007.0 hPa NNW 13.4 km/h 24.5 km/h 63% 0.0 mm 0 W/m2
05:02 22.2 °C 14.8 °C 1007.0 hPa NNW 13.4 km/h 24.5 km/h 63% 0.0 mm 0 W/m2
05:07 22.2 °C 14.8 °C 1007.0 hPa NNW 14.8 km/h 23.3 km/h 63% 0.0 mm 0 W/m2
05:12 22.2 °C 14.8 °C 1007.0 hPa NNW 12.2 km/h 23.3 km/h 63% 0.0 mm 0 W/m2
05:17 22.2 °C 14.8 °C 1007.0 hPa NNW 9.7 km/h 23.3 km/h 63% 0.0 mm 0 W/m2
05:22 22.2 °C 14.8 °C 1006.7 hPa NNW 18.3 km/h 30.6 km/h 63% 0.0 mm 0 W/m2
05:27 22.2 °C 14.8 °C 1007.0 hPa NNW 20.9 km/h 30.6 km/h 63% 0.0 mm 0 W/m2
05:32 22.2 °C 14.8 °C 1007.0 hPa NNW 20.9 km/h 31.7 km/h 63% 0.0 mm 0 W/m2
05:37 22.2 °C 14.8 °C 1007.0 hPa NNW 19.5 km/h 31.7 km/h 63% 0.0 mm 0 W/m2
05:42 22.2 °C 14.8 °C 1007.0 hPa NNW 15.8 km/h 31.7 km/h 63% 0.0 mm 0 W/m2
05:47 22.2 °C 14.8 °C 1007.0 hPa NNW 9.7 km/h 27.0 km/h 63% 0.0 mm 0 W/m2
05:52 22.1 °C 14.7 °C 1007.0 hPa NNW 11.1 km/h 27.0 km/h 63% 0.0 mm 0 W/m2
05:57 22.1 °C 14.7 °C 1007.3 hPa North 13.4 km/h 31.7 km/h 63% 0.0 mm 0 W/m2
06:02 22.1 °C 14.7 °C 1007.3 hPa North 9.7 km/h 31.7 km/h 63% 0.0 mm 0 W/m2
06:07 22.0 °C 14.9 °C 1007.3 hPa NNW 7.2 km/h 21.9 km/h 64% 0.0 mm 0 W/m2
06:12 22.0 °C 14.9 °C 1007.7 hPa NNW 9.7 km/h 20.9 km/h 64% 0.0 mm 0 W/m2
06:17 21.9 °C 15.1 °C 1007.3 hPa NNW 6.1 km/h 19.5 km/h 65% 0.0 mm 0 W/m2
06:22 21.9 °C 15.1 °C 1007.7 hPa NNW 7.2 km/h 21.9 km/h 65% 0.0 mm 0 W/m2
06:27 21.9 °C 15.1 °C 1008.0 hPa Calm   21.9 km/h 65% 0.0 mm 0 W/m2
06:32 21.8 °C 14.9 °C 1008.0 hPa NNW 5.0 km/h 13.4 km/h 65% 0.0 mm 3 W/m2
06:37 21.9 °C 15.1 °C 1008.0 hPa NW 1.1 km/h 11.1 km/h 65% 0.0 mm 6 W/m2
06:42 21.7 °C 15.1 °C 1008.4 hPa West 6.1 km/h 11.1 km/h 66% 0.0 mm 10 W/m2
06:47 21.7 °C 15.1 °C 1008.4 hPa West 2.6 km/h 8.7 km/h 66% 0.0 mm 13 W/m2
06:52 21.8 °C 15.2 °C 1008.4 hPa NW 5.0 km/h 8.7 km/h 66% 0.0 mm 17 W/m2
06:57 21.9 °C 15.3 °C 1008.4 hPa NW 9.7 km/h 15.8 km/h 66% 0.0 mm 22 W/m2
07:02 21.9 °C 15.3 °C 1008.4 hPa NNW 6.1 km/h 17.2 km/h 66% 0.0 mm 25 W/m2
07:07 21.9 °C 15.3 °C 1008.4 hPa NNW 12.2 km/h 18.3 km/h 66% 0.0 mm 25 W/m2
07:12 22.0 °C 15.1 °C 1008.4 hPa NNW 7.2 km/h 21.9 km/h 65% 0.0 mm 22 W/m2
07:17 22.0 °C 15.1 °C 1008.7 hPa NNW 9.7 km/h 21.9 km/h 65% 0.0 mm 21 W/m2
07:22 22.0 °C 15.1 °C 1008.7 hPa NNW 8.7 km/h 18.3 km/h 65% 0.0 mm 28 W/m2
07:27 22.1 °C 15.2 °C 1008.7 hPa NNW 6.1 km/h 15.8 km/h 65% 0.0 mm 42 W/m2
07:32 22.4 °C 15.5 °C 1008.7 hPa NNW 7.2 km/h 15.8 km/h 65% 0.0 mm 122 W/m2
07:37 23.0 °C 16.1 °C 1008.7 hPa NNW 7.2 km/h 13.4 km/h 65% 0.0 mm 143 W/m2
07:42 23.5 °C 16.1 °C 1008.7 hPa NNW 11.1 km/h 18.3 km/h 63% 0.0 mm 168 W/m2
07:47 24.2 °C 15.9 °C 1009.0 hPa North 7.2 km/h 18.3 km/h 60% 0.0 mm 200 W/m2
07:52 25.0 °C 15.9 °C 1009.4 hPa NNE 5.0 km/h 18.3 km/h 57% 0.0 mm 237 W/m2
07:57 25.5 °C 15.8 °C 1009.4 hPa NNE 9.7 km/h 18.3 km/h 55% 0.0 mm 262 W/m2
08:02 25.5 °C 16.1 °C 1009.7 hPa North 3.5 km/h 18.3 km/h 56% 0.0 mm 295 W/m2
08:21 25.1 °C 16.0 °C 1009.4 hPa NNW 12.2 km/h 25.6 km/h 57% 0.0 mm 277 W/m2
08:26 25.0 °C 15.9 °C 1009.4 hPa NW 13.4 km/h 28.0 km/h 57% 0.0 mm 275 W/m2
08:31 25.1 °C 16.0 °C 1009.4 hPa NNW 13.4 km/h 28.0 km/h 57% 0.0 mm 185 W/m2
08:36 24.7 °C 15.9 °C 1009.7 hPa NNW 11.1 km/h 24.5 km/h 58% 0.0 mm 68 W/m2
08:41 24.2 °C 15.7 °C 1009.7 hPa NNW 14.8 km/h 21.9 km/h 59% 0.0 mm 300 W/m2
08:46 24.7 °C 16.4 °C 1009.4 hPa NNW 15.8 km/h 23.3 km/h 60% 0.0 mm 314 W/m2
08:51 25.2 °C 16.1 °C 1009.7 hPa NNW 11.1 km/h 24.5 km/h 57% 0.0 mm 327 W/m2
08:56 25.6 °C 16.2 °C 1009.4 hPa NNW 14.8 km/h 24.5 km/h 56% 0.0 mm 347 W/m2
09:01 25.5 °C 16.1 °C 1009.4 hPa NNW 14.8 km/h 23.3 km/h 56% 0.0 mm 364 W/m2
09:06 25.7 °C 16.3 °C 1009.4 hPa NNW 13.4 km/h 23.3 km/h 56% 0.0 mm 382 W/m2
09:11 25.8 °C 16.1 °C 1009.4 hPa NNW 14.8 km/h 29.4 km/h 55% 0.0 mm 396 W/m2
09:16 26.2 °C 16.4 °C 1009.4 hPa NNW 12.2 km/h 29.4 km/h 55% 0.0 mm 412 W/m2
09:21 26.1 °C 16.1 °C 1009.4 hPa North 18.3 km/h 28.0 km/h 54% 0.0 mm 436 W/m2
09:26 26.3 °C 16.3 °C 1009.4 hPa NNW 12.2 km/h 28.0 km/h 54% 0.0 mm 446 W/m2
09:31 26.2 °C 15.9 °C 1009.4 hPa NW 18.3 km/h 31.7 km/h 53% 0.0 mm 474 W/m2
09:36 26.1 °C 15.8 °C 1009.0 hPa NW 9.7 km/h 31.7 km/h 53% 0.0 mm 483 W/m2
09:41 26.5 °C 16.2 °C 1009.4 hPa NW 20.9 km/h 31.7 km/h 53% 0.0 mm 510 W/m2
09:46 26.4 °C 15.8 °C 1009.4 hPa NW 15.8 km/h 30.6 km/h 52% 0.0 mm 534 W/m2
09:51 26.6 °C 15.9 °C 1009.4 hPa NNW 12.2 km/h 30.6 km/h 52% 0.0 mm 548 W/m2
09:56 26.8 °C 15.8 °C 1009.4 hPa North 18.3 km/h 31.7 km/h 51% 0.0 mm 581 W/m2
10:01 26.9 °C 15.6 °C 1009.4 hPa NNW 9.7 km/h 31.7 km/h 50% 0.0 mm 589 W/m2
10:06 27.2 °C 15.3 °C 1009.7 hPa NNW 14.8 km/h 31.7 km/h 48% 0.0 mm 614 W/m2
10:11 27.2 °C 15.9 °C 1009.4 hPa NNW 19.5 km/h 31.7 km/h 50% 0.0 mm 633 W/m2
10:16 27.4 °C 15.8 °C 1009.4 hPa NW 19.5 km/h 31.7 km/h 49% 0.0 mm 650 W/m2
10:21 27.3 °C 15.0 °C 1009.4 hPa NNW 12.2 km/h 30.6 km/h 47% 0.0 mm 682 W/m2
10:26 27.6 °C 15.9 °C 1009.4 hPa NNW 9.7 km/h 30.6 km/h 49% 0.0 mm 692 W/m2
10:31 28.2 °C 16.2 °C 1009.4 hPa NW 11.1 km/h 24.5 km/h 48% 0.0 mm 717 W/m2
10:36 28.1 °C 16.1 °C 1009.7 hPa NW 11.1 km/h 23.3 km/h 48% 0.0 mm 740 W/m2
10:41 28.0 °C 16.0 °C 1009.4 hPa NNW 8.7 km/h 24.5 km/h 48% 0.0 mm 752 W/m2
10:46 28.0 °C 15.7 °C 1009.4 hPa NNW 13.4 km/h 24.5 km/h 47% 0.0 mm 797 W/m2
10:51 27.5 °C 14.9 °C 1009.4 hPa NNW 15.8 km/h 33.1 km/h 46% 0.0 mm 811 W/m2
10:56 27.4 °C 15.1 °C 1009.4 hPa NNW 8.7 km/h 39.3 km/h 47% 0.0 mm 807 W/m2
11:01 27.9 °C 14.9 °C 1009.7 hPa NW 15.8 km/h 39.3 km/h 45% 0.0 mm 837 W/m2
11:06 27.9 °C 14.9 °C 1009.7 hPa NW 17.2 km/h 35.6 km/h 45% 0.0 mm 844 W/m2
11:11 28.1 °C 15.1 °C 1009.4 hPa NW 13.4 km/h 35.6 km/h 45% 0.0 mm 873 W/m2
11:16 28.2 °C 15.2 °C 1009.4 hPa NW 14.8 km/h 27.0 km/h 45% 0.0 mm 878 W/m2
11:21 28.5 °C 15.1 °C 1009.7 hPa NW 17.2 km/h 34.3 km/h 44% 0.0 mm 902 W/m2
11:26 28.1 °C 14.7 °C 1009.7 hPa NNW 17.2 km/h 35.6 km/h 44% 0.0 mm 898 W/m2
11:31 28.2 °C 14.1 °C 1009.7 hPa NW 14.8 km/h 35.6 km/h 42% 0.0 mm 920 W/m2
11:36 28.5 °C 14.0 °C 1009.7 hPa NW 18.3 km/h 34.3 km/h 41% 0.0 mm 938 W/m2
11:41 28.6 °C 14.1 °C 1009.7 hPa NW 17.2 km/h 34.3 km/h 41% 0.0 mm 945 W/m2
11:46 28.4 °C 13.5 °C 1009.4 hPa NNW 27.0 km/h 34.3 km/h 40% 0.0 mm 949 W/m2
11:50 28.2 °C 13.3 °C 1009.4 hPa NW 20.9 km/h 34.3 km/h 40% 0.0 mm 949 W/m2
11:55 28.3 °C 13.1 °C 1009.4 hPa NW 23.3 km/h 40.4 km/h 39% 0.0 mm 948 W/m2
12:00 28.6 °C 13.7 °C 1009.4 hPa WNW 20.9 km/h 40.4 km/h 40% 0.0 mm 970 W/m2
12:05 28.6 °C 12.9 °C 1009.4 hPa NW 11.1 km/h 31.7 km/h 38% 0.0 mm 977 W/m2
12:10 28.9 °C 13.2 °C 1009.4 hPa NNW 11.1 km/h 30.6 km/h 38% 0.0 mm 986 W/m2
12:15 29.4 °C 13.2 °C 1009.4 hPa NNW 18.3 km/h 28.0 km/h 37% 0.0 mm 995 W/m2
12:32 29.4 °C 12.8 °C 1009.4 hPa NNW 13.4 km/h 30.6 km/h 36% 0.0 mm 999 W/m2
12:37 29.8 °C 13.2 °C 1009.4 hPa NNW 12.2 km/h 28.0 km/h 36% 0.0 mm 1005 W/m2
12:42 30.3 °C 14.4 °C 1009.4 hPa WNW 7.2 km/h 25.6 km/h 38% 0.0 mm 1014 W/m2
12:47 28.5 °C 15.8 °C 1009.7 hPa SSW 8.7 km/h 20.9 km/h 46% 0.0 mm 1006 W/m2
12:52 27.5 °C 16.5 °C 1009.4 hPa South 9.7 km/h 18.3 km/h 51% 0.0 mm 994 W/m2
12:57 27.2 °C 16.2 °C 1009.4 hPa South 13.4 km/h 19.5 km/h 51% 0.0 mm 989 W/m2
13:02 26.5 °C 16.4 °C 1009.4 hPa South 17.2 km/h 25.6 km/h 54% 0.0 mm 981 W/m2
13:07 25.9 °C 16.2 °C 1009.7 hPa South 12.2 km/h 25.6 km/h 55% 0.0 mm 973 W/m2
13:12 26.2 °C 16.2 °C 1009.7 hPa South 8.7 km/h 23.3 km/h 54% 0.0 mm 971 W/m2
13:17 26.8 °C 16.7 °C 1009.7 hPa SSE 8.7 km/h 17.2 km/h 54% 0.0 mm 971 W/m2
13:22 27.1 °C 16.4 °C 1009.7 hPa SSE 3.5 km/h 19.5 km/h 52% 0.0 mm 970 W/m2
13:27 27.0 °C 16.0 °C 1009.7 hPa SSE 6.1 km/h 19.5 km/h 51% 0.0 mm 969 W/m2
13:32 27.0 °C 15.4 °C 1009.7 hPa SE 6.1 km/h 18.3 km/h 49% 0.0 mm 963 W/m2
13:37 27.3 °C 15.7 °C 1009.7 hPa SE 8.7 km/h 18.3 km/h 49% 0.0 mm 962 W/m2
13:42 27.4 °C 15.8 °C 1009.7 hPa SSE 7.2 km/h 14.8 km/h 49% 0.0 mm 957 W/m2
13:47 27.8 °C 15.2 °C 1009.7 hPa SSE 7.2 km/h 15.8 km/h 46% 0.0 mm 955 W/m2
13:52 27.8 °C 14.8 °C 1010.0 hPa SSE 13.4 km/h 18.3 km/h 45% 0.0 mm 947 W/m2
13:57 27.4 °C 15.8 °C 1010.0 hPa SSE 14.8 km/h 18.3 km/h 49% 0.0 mm 934 W/m2
14:02 27.0 °C 14.7 °C 1010.0 hPa SSE 11.1 km/h 18.3 km/h 47% 0.0 mm 927 W/m2
14:07 26.6 °C 14.7 °C 1010.0 hPa South 11.1 km/h 18.3 km/h 48% 0.0 mm 916 W/m2
14:12 26.3 °C 15.4 °C 1010.0 hPa South 7.2 km/h 18.3 km/h 51% 0.0 mm 906 W/m2
14:17 26.6 °C 15.1 °C 1010.0 hPa South 12.2 km/h 17.2 km/h 49% 0.0 mm 902 W/m2
14:22 26.3 °C 15.1 °C 1010.4 hPa South 12.2 km/h 19.5 km/h 50% 0.0 mm 896 W/m2
14:28 26.3 °C 16.0 °C 1010.0 hPa SSE 11.1 km/h 19.5 km/h 53% 0.0 mm 891 W/m2
14:33 25.8 °C 16.9 °C 1010.4 hPa South 6.1 km/h 20.9 km/h 58% 0.0 mm 882 W/m2
14:38 25.9 °C 18.3 °C 1010.4 hPa South 12.2 km/h 21.9 km/h 63% 0.0 mm 867 W/m2
14:43 25.5 °C 17.7 °C 1010.0 hPa SSE 3.5 km/h 23.3 km/h 62% 0.0 mm 845 W/m2
14:48 25.7 °C 18.2 °C 1010.4 hPa SE 8.7 km/h 23.3 km/h 63% 0.0 mm 831 W/m2
14:50 25.5 °C 17.9 °C 1010.7 hPa SE 11.1 km/h 23.3 km/h 63% 0.0 mm 825 W/m2
14:55 24.6 °C 17.8 °C 1010.4 hPa SE 12.2 km/h 27.0 km/h 66% 0.0 mm 797 W/m2
15:00 24.7 °C 18.2 °C 1010.7 hPa SE 6.1 km/h 27.0 km/h 67% 0.0 mm 799 W/m2
15:05 25.4 °C 18.1 °C 1010.7 hPa SSE 9.7 km/h 21.9 km/h 64% 0.0 mm 783 W/m2
15:10 25.6 °C 17.8 °C 1011.1 hPa SSE 8.7 km/h 18.3 km/h 62% 0.0 mm 761 W/m2
15:15 24.9 °C 17.2 °C 1010.7 hPa SSE 11.1 km/h 18.3 km/h 62% 0.0 mm 763 W/m2
15:20 25.2 °C 17.7 °C 1010.7 hPa SE 9.7 km/h 18.3 km/h 63% 0.0 mm 748 W/m2
15:25 25.0 °C 16.7 °C 1010.7 hPa ESE 12.2 km/h 21.9 km/h 60% 0.0 mm 740 W/m2
15:30 24.6 °C 16.8 °C 1010.7 hPa SE 7.2 km/h 23.3 km/h 62% 0.0 mm 726 W/m2
15:35 24.6 °C 16.8 °C 1010.7 hPa SE 9.7 km/h 23.3 km/h 62% 0.0 mm 600 W/m2
15:40 24.6 °C 16.8 °C 1010.7 hPa SE 7.2 km/h 20.9 km/h 62% 0.0 mm 523 W/m2
15:45 24.6 °C 17.1 °C 1010.7 hPa SE 6.1 km/h 20.9 km/h 63% 0.0 mm 690 W/m2
16:03 24.2 °C 16.2 °C 1010.7 hPa SE 8.7 km/h 20.9 km/h 61% 0.0 mm 600 W/m2
16:08 24.5 °C 16.2 °C 1011.1 hPa ESE 9.7 km/h 21.9 km/h 60% 0.0 mm 488 W/m2
16:18 24.5 °C 15.2 °C 1010.7 hPa SE 13.4 km/h 19.5 km/h 56% 0.0 mm 557 W/m2
16:23 25.0 °C 15.3 °C 1011.1 hPa SE 12.2 km/h 18.3 km/h 55% 0.0 mm 570 W/m2
16:28 25.4 °C 15.7 °C 1010.7 hPa SSE 7.2 km/h 19.5 km/h 55% 0.0 mm 391 W/m2
16:33 25.6 °C 15.9 °C 1010.7 hPa SE 9.7 km/h 20.9 km/h 55% 0.0 mm 544 W/m2
16:38 25.4 °C 15.4 °C 1011.1 hPa SE 9.7 km/h 20.9 km/h 54% 0.0 mm 564 W/m2
16:43 25.7 °C 15.7 °C 1011.1 hPa SE 12.2 km/h 20.9 km/h 54% 0.0 mm 554 W/m2
16:48 25.0 °C 15.1 °C 1011.1 hPa ESE 13.4 km/h 21.9 km/h 54% 0.0 mm 537 W/m2
16:53 25.0 °C 14.8 °C 1011.1 hPa ESE 9.7 km/h 21.9 km/h 53% 0.0 mm 523 W/m2
16:58 25.0 °C 14.5 °C 1011.1 hPa ESE 11.1 km/h 21.9 km/h 52% 0.0 mm 507 W/m2
17:03 25.2 °C 14.4 °C 1011.1 hPa ESE 8.7 km/h 19.5 km/h 51% 0.0 mm 498 W/m2
17:08 25.4 °C 14.6 °C 1011.1 hPa ESE 12.2 km/h 23.3 km/h 51% 0.0 mm 480 W/m2
17:13 25.0 °C 14.8 °C 1010.7 hPa SE 12.2 km/h 23.3 km/h 53% 0.0 mm 465 W/m2
17:18 25.2 °C 15.3 °C 1011.1 hPa SE 11.1 km/h 20.9 km/h 54% 0.0 mm 451 W/m2
17:23 24.6 °C 15.3 °C 1011.1 hPa ESE 13.4 km/h 25.6 km/h 56% 0.0 mm 435 W/m2
17:28 24.9 °C 15.3 °C 1011.1 hPa SSE 9.7 km/h 25.6 km/h 55% 0.0 mm 420 W/m2
17:33 25.0 °C 14.8 °C 1010.7 hPa SSE 13.4 km/h 24.5 km/h 53% 0.0 mm 406 W/m2
17:38 24.7 °C 15.1 °C 1010.7 hPa SE 8.7 km/h 20.9 km/h 55% 0.0 mm 390 W/m2
17:43 24.5 °C 14.6 °C 1010.7 hPa ESE 11.1 km/h 23.3 km/h 54% 0.0 mm 381 W/m2
17:48 24.9 °C 15.0 °C 1011.1 hPa ESE 6.1 km/h 23.3 km/h 54% 0.0 mm 361 W/m2
17:53 25.3 °C 14.4 °C 1010.7 hPa ESE 9.7 km/h 21.9 km/h 51% 0.0 mm 349 W/m2
17:58 25.5 °C 14.7 °C 1010.7 hPa SE 8.7 km/h 21.9 km/h 51% 0.0 mm 334 W/m2
18:03 25.3 °C 14.4 °C 1010.7 hPa SE 13.4 km/h 25.6 km/h 51% 0.0 mm 321 W/m2
18:08 24.9 °C 15.0 °C 1010.7 hPa SE 7.2 km/h 25.6 km/h 54% 0.0 mm 306 W/m2
18:13 24.8 °C 15.2 °C 1010.7 hPa SE 9.7 km/h 21.9 km/h 55% 0.0 mm 290 W/m2
18:18 24.7 °C 15.3 °C 1010.7 hPa SE 2.6 km/h 21.9 km/h 56% 0.0 mm 275 W/m2
18:23 25.0 °C 15.3 °C 1010.7 hPa SE 12.2 km/h 20.9 km/h 55% 0.0 mm 265 W/m2
18:28 24.9 °C 16.1 °C 1010.7 hPa SSE 9.7 km/h 20.9 km/h 58% 0.0 mm 251 W/m2
18:33 24.7 °C 16.2 °C 1010.7 hPa SE 8.7 km/h 21.9 km/h 59% 0.0 mm 234 W/m2
18:38 24.8 °C 16.0 °C 1010.7 hPa ESE 11.1 km/h 21.9 km/h 58% 0.0 mm 221 W/m2
18:43 24.9 °C 15.6 °C 1010.7 hPa SE 12.2 km/h 20.9 km/h 56% 0.0 mm 203 W/m2
18:48 24.2 °C 15.2 °C 1011.1 hPa SE 7.2 km/h 20.9 km/h 57% 0.0 mm 131 W/m2
18:53 24.0 °C 15.0 °C 1010.7 hPa SE 11.1 km/h 20.9 km/h 57% 0.0 mm 76 W/m2
18:58 23.8 °C 14.8 °C 1011.1 hPa ESE 11.1 km/h 21.9 km/h 57% 0.0 mm 167 W/m2
19:03 23.9 °C 14.6 °C 1011.1 hPa ESE 12.2 km/h 21.9 km/h 56% 0.0 mm 63 W/m2
19:08 23.3 °C 14.6 °C 1011.1 hPa SE 9.7 km/h 21.9 km/h 58% 0.0 mm 53 W/m2
19:13 23.1 °C 14.4 °C 1011.4 hPa ESE 14.8 km/h 21.9 km/h 58% 0.0 mm 46 W/m2
19:18 22.9 °C 13.9 °C 1011.1 hPa SE 11.1 km/h 24.5 km/h 57% 0.0 mm 42 W/m2
19:23 22.7 °C 13.8 °C 1011.4 hPa SE 11.1 km/h 24.5 km/h 57% 0.0 mm 40 W/m2
19:28 22.7 °C 14.1 °C 1011.4 hPa SE 6.1 km/h 24.5 km/h 58% 0.0 mm 49 W/m2
19:33 22.6 °C 13.9 °C 1011.7 hPa SE 7.2 km/h 23.3 km/h 58% 0.0 mm 47 W/m2
19:38 22.5 °C 14.1 °C 1011.4 hPa ESE 12.2 km/h 20.9 km/h 59% 0.0 mm 39 W/m2
19:43 22.3 °C 13.9 °C 1011.7 hPa ESE 8.7 km/h 25.6 km/h 59% 0.0 mm 41 W/m2
19:48 22.2 °C 13.8 °C 1011.7 hPa ESE 11.1 km/h 25.6 km/h 59% 0.0 mm 29 W/m2
19:53 22.0 °C 13.9 °C 1011.7 hPa ESE 7.2 km/h 21.9 km/h 60% 0.0 mm 25 W/m2
19:58 21.8 °C 13.9 °C 1011.7 hPa ESE 12.2 km/h 21.9 km/h 61% 0.0 mm 24 W/m2
20:03 21.6 °C 14.0 °C 1011.7 hPa ESE 9.7 km/h 21.9 km/h 62% 0.0 mm 18 W/m2
20:08 21.5 °C 13.9 °C 1012.1 hPa ESE 7.2 km/h 20.9 km/h 62% 0.0 mm 14 W/m2
20:13 21.4 °C 13.8 °C 1012.1 hPa SE 7.2 km/h 19.5 km/h 62% 0.0 mm 11 W/m2
20:18 21.4 °C 13.6 °C 1012.4 hPa SE 6.1 km/h 19.5 km/h 61% 0.0 mm 7 W/m2
20:23 21.4 °C 13.8 °C 1012.1 hPa ESE 9.7 km/h 14.8 km/h 62% 0.0 mm 4 W/m2
20:28 21.2 °C 13.7 °C 1012.4 hPa SE 11.1 km/h 18.3 km/h 62% 0.0 mm 1 W/m2
20:33 21.1 °C 13.8 °C 1012.4 hPa ESE 9.7 km/h 23.3 km/h 63% 0.0 mm 0 W/m2
20:38 21.0 °C 13.7 °C 1012.4 hPa East 8.7 km/h 25.6 km/h 63% 0.0 mm 0 W/m2
20:43 21.0 °C 13.4 °C 1012.4 hPa ESE 17.2 km/h 25.6 km/h 62% 0.0 mm 0 W/m2
20:48 21.1 °C 13.6 °C 1012.4 hPa ESE 9.7 km/h 20.9 km/h 62% 0.0 mm 0 W/m2
20:53 21.2 °C 13.2 °C 1012.8 hPa ESE 11.1 km/h 21.9 km/h 60% 0.0 mm 0 W/m2
20:58 21.2 °C 13.2 °C 1012.8 hPa ESE 11.1 km/h 21.9 km/h 60% 0.0 mm 0 W/m2
21:03 21.2 °C 12.9 °C 1012.8 hPa East 7.2 km/h 19.5 km/h 59% 0.0 mm 0 W/m2
21:08 21.3 °C 13.0 °C 1012.8 hPa ESE 9.7 km/h 20.9 km/h 59% 0.0 mm 0 W/m2
21:13 21.2 °C 13.2 °C 1013.1 hPa East 9.7 km/h 20.9 km/h 60% 0.0 mm 0 W/m2
21:18 21.2 °C 12.9 °C 1013.1 hPa East 13.4 km/h 19.5 km/h 59% 0.0 mm 0 W/m2
21:23 21.2 °C 12.9 °C 1013.1 hPa ESE 11.1 km/h 19.5 km/h 59% 0.0 mm 0 W/m2
21:40 21.3 °C 12.7 °C 1013.4 hPa East 8.7 km/h 18.3 km/h 58% 0.0 mm 0 W/m2
21:45 21.3 °C 12.7 °C 1013.4 hPa East 11.1 km/h 19.5 km/h 58% 0.0 mm 0 W/m2
21:50 21.3 °C 12.7 °C 1013.4 hPa East 8.7 km/h 19.5 km/h 58% 0.0 mm 0 W/m2
21:55 21.2 °C 12.6 °C 1013.4 hPa East 11.1 km/h 18.3 km/h 58% 0.0 mm 0 W/m2
22:00 21.1 °C 12.8 °C 1013.4 hPa ENE 11.1 km/h 17.2 km/h 59% 0.0 mm 0 W/m2
22:05 21.0 °C 12.7 °C 1013.8 hPa East 7.2 km/h 17.2 km/h 59% 0.0 mm 0 W/m2
22:10 21.0 °C 12.7 °C 1013.8 hPa East 7.2 km/h 13.4 km/h 59% 0.0 mm 0 W/m2
22:15 21.0 °C 12.7 °C 1013.8 hPa East 9.7 km/h 17.2 km/h 59% 0.0 mm 0 W/m2
22:20 21.0 °C 12.7 °C 1013.8 hPa East 6.1 km/h 17.2 km/h 59% 0.0 mm 0 W/m2
22:25 20.8 °C 12.8 °C 1013.8 hPa East 8.7 km/h 15.8 km/h 60% 0.0 mm 0 W/m2
22:30 20.7 °C 12.7 °C 1013.8 hPa ENE 2.6 km/h 14.8 km/h 60% 0.0 mm 0 W/m2
22:35 20.4 °C 12.7 °C 1013.8 hPa Calm   14.8 km/h 61% 0.0 mm 0 W/m2
22:40 20.0 °C 12.8 °C 1013.8 hPa North 2.6 km/h 8.7 km/h 63% 0.0 mm 0 W/m2
22:45 19.5 °C 12.8 °C 1013.8 hPa NNW 2.6 km/h 6.1 km/h 65% 0.0 mm 0 W/m2
22:50 19.3 °C 12.8 °C 1013.8 hPa NW 3.5 km/h 5.0 km/h 66% 0.0 mm 0 W/m2
22:55 19.0 °C 12.7 °C 1013.8 hPa NW 2.6 km/h 5.0 km/h 67% 0.0 mm 0 W/m2
23:00 18.7 °C 13.1 °C 1013.4 hPa NW 2.6 km/h 5.0 km/h 70% 0.0 mm 0 W/m2
23:05 18.4 °C 13.1 °C 1013.8 hPa NW 1.1 km/h 5.0 km/h 71% 0.0 mm 0 W/m2
23:10 18.3 °C 13.2 °C 1013.8 hPa NW 1.1 km/h 3.5 km/h 72% 0.0 mm 0 W/m2
23:15 18.1 °C 13.6 °C 1013.4 hPa NNW 2.6 km/h 3.5 km/h 75% 0.0 mm 0 W/m2
23:20 17.9 °C 13.4 °C 1013.4 hPa North 2.6 km/h 5.0 km/h 75% 0.0 mm 0 W/m2
23:25 17.8 °C 13.5 °C 1013.8 hPa North 1.1 km/h 5.0 km/h 76% 0.0 mm 0 W/m2
23:30 17.6 °C 13.3 °C 1013.4 hPa NNW 1.1 km/h 5.0 km/h 76% 0.0 mm 0 W/m2
23:35 17.5 °C 13.4 °C 1013.8 hPa Calm   3.5 km/h 77% 0.0 mm 0 W/m2
23:40 17.4 °C 13.3 °C 1013.8 hPa Calm   3.5 km/h 77% 0.0 mm 0 W/m2
23:45 17.3 °C 13.2 °C 1013.8 hPa NW 1.1 km/h 3.5 km/h 77% 0.0 mm 0 W/m2
23:50 17.1 °C 13.2 °C 1013.8 hPa NW 1.1 km/h 3.5 km/h 78% 0.0 mm 0 W/m2
23:55 16.9 °C 13.8 °C 1013.8 hPa NNW 2.6 km/h 5.0 km/h 82% 0.0 mm 0 W/m2
Northern Hawkes Bay. New Zealand Historic Data
Compliments of Weather Underground - 2 mb